createdAt,value
2018-06-09T00:00:44.888Z,0.00
2018-06-09T00:01:44.952Z,0.00
2018-06-09T00:02:45.058Z,0.00
2018-06-09T00:03:45.075Z,0.00
2018-06-09T00:04:45.139Z,0.00
2018-06-09T00:05:45.199Z,0.00
2018-06-09T00:06:45.260Z,0.00
2018-06-09T00:07:45.322Z,0.00
2018-06-09T00:08:45.385Z,0.00
2018-06-09T00:09:45.697Z,0.00
2018-06-09T00:10:45.510Z,0.00
2018-06-09T00:11:45.569Z,0.00
2018-06-09T00:12:45.632Z,0.00
2018-06-09T00:13:45.693Z,0.00
2018-06-09T00:14:45.754Z,0.00
2018-06-09T00:15:45.819Z,0.00
2018-06-09T00:16:45.880Z,0.00
2018-06-09T00:17:45.944Z,0.00
2018-06-09T00:18:46.003Z,0.00
2018-06-09T00:19:46.065Z,0.00
2018-06-09T00:20:46.126Z,0.00
2018-06-09T00:21:46.190Z,0.00
2018-06-09T00:22:46.252Z,0.00
2018-06-09T00:23:46.313Z,0.00
2018-06-09T00:24:46.374Z,0.00
2018-06-09T00:25:46.435Z,0.00
2018-06-09T00:26:46.499Z,0.00
2018-06-09T00:27:46.560Z,0.00
2018-06-09T00:28:46.622Z,0.00
2018-06-09T00:29:46.683Z,0.00
2018-06-09T00:30:46.745Z,0.00
2018-06-09T00:31:46.806Z,0.00
2018-06-09T00:32:46.869Z,0.00
2018-06-09T00:33:46.930Z,0.00
2018-06-09T00:34:46.992Z,0.00
2018-06-09T00:35:47.063Z,0.00
2018-06-09T00:36:47.366Z,0.00
2018-06-09T00:37:47.179Z,0.00
2018-06-09T00:38:47.239Z,0.00
2018-06-09T00:39:47.300Z,0.00
2018-06-09T00:40:47.363Z,0.00
2018-06-09T00:41:47.424Z,0.00
2018-06-09T00:42:47.486Z,0.00
2018-06-09T00:43:47.547Z,0.00
2018-06-09T00:44:47.609Z,0.00
2018-06-09T00:45:47.671Z,0.00
2018-06-09T00:46:47.733Z,0.00
2018-06-09T00:47:47.945Z,0.00
2018-06-09T00:48:47.856Z,0.00
2018-06-09T00:49:47.918Z,0.00
2018-06-09T00:50:47.979Z,0.00
2018-06-09T00:51:48.041Z,0.00
2018-06-09T00:52:48.105Z,0.00
2018-06-09T00:53:48.166Z,0.00
2018-06-09T00:54:48.227Z,0.00
2018-06-09T00:55:48.291Z,0.00
2018-06-09T00:56:48.354Z,0.00
2018-06-09T00:57:48.412Z,0.00
2018-06-09T00:58:48.724Z,0.00
2018-06-09T00:59:48.536Z,0.00
2018-06-09T01:00:48.596Z,0.00
2018-06-09T01:01:48.659Z,0.00
2018-06-09T01:02:48.720Z,0.00
2018-06-09T01:03:48.783Z,0.00
2018-06-09T01:04:48.844Z,0.00
2018-06-09T01:05:48.906Z,0.00
2018-06-09T01:06:48.967Z,0.00
2018-06-09T01:07:49.029Z,0.00
2018-06-09T01:08:49.090Z,0.00
2018-06-09T01:09:49.153Z,0.00
2018-06-09T01:10:49.215Z,0.00
2018-06-09T01:11:49.275Z,0.00
2018-06-09T01:12:49.339Z,0.00
2018-06-09T01:13:49.400Z,0.00
2018-06-09T01:14:49.460Z,0.00
2018-06-09T01:15:49.524Z,0.00
2018-06-09T01:16:49.585Z,0.00
2018-06-09T01:17:49.644Z,0.00
2018-06-09T01:18:49.714Z,0.00
2018-06-09T01:19:49.766Z,0.00
2018-06-09T01:20:49.830Z,0.00
2018-06-09T01:21:49.895Z,0.00
2018-06-09T01:22:49.954Z,0.00
2018-06-09T01:23:50.017Z,0.00
2018-06-09T01:24:50.093Z,0.00
2018-06-09T01:25:50.137Z,0.00
2018-06-09T01:26:50.198Z,0.00
2018-06-09T01:27:50.260Z,0.00
2018-06-09T01:28:50.323Z,0.00
2018-06-09T01:29:50.385Z,0.00
2018-06-09T01:30:50.448Z,0.00
2018-06-09T01:31:50.507Z,0.00
2018-06-09T01:32:50.569Z,0.00
2018-06-09T01:33:50.629Z,0.00
2018-06-09T01:34:50.690Z,0.00
2018-06-09T01:35:50.757Z,0.00
2018-06-09T01:36:50.813Z,0.00
2018-06-09T01:37:50.876Z,0.00
2018-06-09T01:38:50.937Z,0.00
2018-06-09T01:39:50.998Z,0.00
2018-06-09T01:40:51.059Z,0.00
2018-06-09T01:41:51.126Z,0.00
2018-06-09T01:42:51.181Z,0.00
2018-06-09T01:43:51.243Z,0.00
2018-06-09T01:44:51.305Z,0.00
2018-06-09T01:45:51.369Z,0.00
2018-06-09T01:46:51.426Z,0.00
2018-06-09T01:47:51.488Z,0.00
2018-06-09T01:48:51.550Z,0.00
2018-06-09T01:49:51.613Z,0.00
2018-06-09T01:50:51.674Z,0.00
2018-06-09T01:51:51.735Z,0.00
2018-06-09T01:52:51.797Z,0.00
2018-06-09T01:53:51.857Z,0.00
2018-06-09T01:54:51.918Z,0.00
2018-06-09T01:55:52.231Z,0.00
2018-06-09T01:56:52.042Z,0.00
2018-06-09T01:57:52.103Z,0.00
2018-06-09T01:58:52.164Z,0.00
2018-06-09T01:59:52.227Z,0.00
2018-06-09T02:00:52.291Z,0.00
2018-06-09T02:01:52.349Z,0.00
2018-06-09T02:02:52.410Z,0.00
2018-06-09T02:03:52.471Z,0.00
2018-06-09T02:04:52.532Z,0.00
2018-06-09T02:05:52.594Z,0.00
2018-06-09T02:06:52.655Z,0.00
2018-06-09T02:07:52.720Z,0.00
2018-06-09T02:08:52.778Z,0.00
2018-06-09T02:09:52.841Z,0.00
2018-06-09T02:10:52.900Z,0.00
2018-06-09T02:11:52.963Z,0.00
2018-06-09T02:12:53.025Z,0.00
2018-06-09T02:13:53.084Z,0.00
2018-06-09T02:14:53.146Z,0.00
2018-06-09T02:15:53.206Z,0.00
2018-06-09T02:16:53.272Z,0.00
2018-06-09T02:17:53.331Z,0.00
2018-06-09T02:18:53.391Z,0.00
2018-06-09T02:19:53.453Z,0.00
2018-06-09T02:20:53.515Z,0.00
2018-06-09T02:21:53.595Z,0.00
2018-06-09T02:22:53.638Z,0.00
2018-06-09T02:23:53.699Z,0.00
2018-06-09T02:24:53.780Z,0.00
2018-06-09T02:25:53.822Z,0.00
2018-06-09T02:26:53.882Z,0.00
2018-06-09T02:27:53.947Z,0.00
2018-06-09T02:28:54.007Z,0.00
2018-06-09T02:29:54.067Z,0.00
2018-06-09T02:30:54.131Z,0.00
2018-06-09T02:31:54.191Z,0.00
2018-06-09T02:32:54.254Z,0.00
2018-06-09T02:33:54.313Z,0.00
2018-06-09T02:34:54.372Z,0.00
2018-06-09T02:35:54.435Z,0.00
2018-06-09T02:36:54.496Z,0.00
2018-06-09T02:37:54.557Z,0.00
2018-06-09T02:38:54.619Z,0.00
2018-06-09T02:39:54.680Z,0.00
2018-06-09T02:40:54.740Z,0.00
2018-06-09T02:41:54.804Z,0.00
2018-06-09T02:42:54.864Z,0.00
2018-06-09T02:43:54.927Z,4.00
2018-06-09T02:44:54.987Z,4.00
2018-06-09T02:45:55.048Z,4.00
2018-06-09T02:46:55.109Z,4.00
2018-06-09T02:47:55.170Z,4.00
2018-06-09T02:48:55.232Z,4.00
2018-06-09T02:49:55.300Z,4.00
2018-06-09T02:50:55.355Z,8.00
2018-06-09T02:51:55.414Z,4.00
2018-06-09T02:52:55.477Z,8.00
2018-06-09T02:53:55.540Z,8.00
2018-06-09T02:54:55.601Z,12.00
2018-06-09T02:55:55.661Z,12.00
2018-06-09T02:56:55.723Z,16.00
2018-06-09T02:57:55.785Z,16.00
2018-06-09T02:58:55.844Z,16.00
2018-06-09T02:59:55.904Z,20.00
2018-06-09T03:00:55.970Z,20.00
2018-06-09T03:01:56.029Z,24.00
2018-06-09T03:02:56.089Z,28.00
2018-06-09T03:03:56.150Z,32.00
2018-06-09T03:04:56.212Z,36.00
2018-06-09T03:05:56.273Z,40.00
2018-06-09T03:06:56.334Z,48.00
2018-06-09T03:07:56.396Z,52.00
2018-06-09T03:08:56.458Z,56.00
2018-06-09T03:09:56.520Z,68.00
2018-06-09T03:10:56.579Z,72.00
2018-06-09T03:11:56.640Z,80.00
2018-06-09T03:12:56.701Z,92.00
2018-06-09T03:13:56.764Z,100.00
2018-06-09T03:14:56.824Z,108.00
2018-06-09T03:15:56.885Z,116.00
2018-06-09T03:16:56.946Z,124.00
2018-06-09T03:17:57.258Z,140.00
2018-06-09T03:18:57.069Z,148.00
2018-06-09T03:19:57.128Z,160.00
2018-06-09T03:20:57.193Z,176.00
2018-06-09T03:21:57.253Z,192.00
2018-06-09T03:22:57.316Z,208.00
2018-06-09T03:23:57.380Z,220.00
2018-06-09T03:24:57.436Z,236.00
2018-06-09T03:25:57.499Z,248.00
2018-06-09T03:26:57.558Z,264.00
2018-06-09T03:27:57.619Z,284.00
2018-06-09T03:28:57.680Z,304.00
2018-06-09T03:29:57.743Z,328.00
2018-06-09T03:30:57.802Z,348.00
2018-06-09T03:31:57.864Z,372.00
2018-06-09T03:32:57.925Z,400.00
2018-06-09T03:33:57.987Z,428.00
2018-06-09T03:34:58.047Z,456.00
2018-06-09T03:35:58.109Z,484.00
2018-06-09T03:36:58.171Z,512.00
2018-06-09T03:37:58.233Z,548.00
2018-06-09T03:38:58.292Z,584.00
2018-06-09T03:39:58.352Z,616.00
2018-06-09T03:40:58.665Z,644.00
2018-06-09T03:41:58.476Z,672.00
2018-06-09T03:42:58.537Z,704.00
2018-06-09T03:43:58.618Z,732.00
2018-06-09T03:44:58.698Z,764.00
2018-06-09T03:45:58.721Z,792.00
2018-06-09T03:46:58.781Z,816.00
2018-06-09T03:47:58.842Z,836.00
2018-06-09T03:48:58.905Z,868.00
2018-06-09T03:49:58.965Z,892.00
2018-06-09T03:50:59.026Z,924.00
2018-06-09T03:51:59.089Z,956.00
2018-06-09T03:52:59.148Z,976.00
2018-06-09T03:53:59.256Z,1008.00
2018-06-09T03:54:59.270Z,1032.00
2018-06-09T03:55:59.331Z,1072.00
2018-06-09T03:56:59.393Z,1108.00
2018-06-09T03:57:59.454Z,1140.00
2018-06-09T03:58:59.515Z,1176.00
2018-06-09T03:59:59.576Z,1220.00
2018-06-09T04:00:59.637Z,1264.00
2018-06-09T04:01:59.700Z,1308.00
2018-06-09T04:02:59.759Z,1344.00
2018-06-09T04:03:59.821Z,1392.00
2018-06-09T04:04:59.882Z,1444.00
2018-06-09T04:05:59.943Z,1500.00
2018-06-09T04:07:00.006Z,1556.00
2018-06-09T04:08:00.066Z,1616.00
2018-06-09T04:09:00.128Z,1692.00
2018-06-09T04:10:00.189Z,1768.00
2018-06-09T04:11:00.249Z,1840.00
2018-06-09T04:12:00.310Z,1900.00
2018-06-09T04:13:00.374Z,1956.00
2018-06-09T04:14:00.434Z,2016.00
2018-06-09T04:15:00.493Z,2104.00
2018-06-09T04:16:00.555Z,2196.00
2018-06-09T04:17:00.617Z,2288.00
2018-06-09T04:18:00.678Z,2368.00
2018-06-09T04:19:00.740Z,2444.00
2018-06-09T04:20:00.951Z,2504.00
2018-06-09T04:21:00.864Z,2532.00
2018-06-09T04:22:00.924Z,2548.00
2018-06-09T04:23:00.987Z,2596.00
2018-06-09T04:24:01.046Z,2680.00
2018-06-09T04:25:01.110Z,2768.00
2018-06-09T04:26:01.168Z,2880.00
2018-06-09T04:27:01.229Z,2944.00
2018-06-09T04:28:01.291Z,2996.00
2018-06-09T04:29:01.352Z,3080.00
2018-06-09T04:30:01.415Z,3128.00
2018-06-09T04:31:01.477Z,3168.00
2018-06-09T04:32:01.537Z,3240.00
2018-06-09T04:33:01.597Z,3372.00
2018-06-09T04:34:01.697Z,3576.00
2018-06-09T04:35:01.720Z,3736.00
2018-06-09T04:36:01.782Z,3832.00
2018-06-09T04:37:01.844Z,3972.00
2018-06-09T04:38:01.906Z,4168.00
2018-06-09T04:39:01.966Z,4316.00
2018-06-09T04:40:02.049Z,4388.00
2018-06-09T04:41:02.088Z,4508.00
2018-06-09T04:42:02.150Z,4752.00
2018-06-09T04:43:02.216Z,5000.00
2018-06-09T04:44:02.274Z,5220.00
2018-06-09T04:45:02.334Z,5420.00
2018-06-09T04:46:02.437Z,5584.00
2018-06-09T04:47:02.457Z,5736.00
2018-06-09T04:48:02.518Z,5876.00
2018-06-09T04:49:02.580Z,6016.00
2018-06-09T04:50:02.645Z,6188.00
2018-06-09T04:51:02.709Z,6332.00
2018-06-09T04:52:02.765Z,6480.00
2018-06-09T04:53:02.827Z,6628.00
2018-06-09T04:54:03.281Z,6816.00
2018-06-09T04:55:02.950Z,6848.00
2018-06-09T04:56:03.012Z,6944.00
2018-06-09T04:57:03.074Z,7032.00
2018-06-09T04:58:03.135Z,7076.00
2018-06-09T04:59:03.196Z,7064.00
2018-06-09T05:00:03.260Z,6920.00
2018-06-09T05:01:03.319Z,6808.00
2018-06-09T05:02:03.383Z,6744.00
2018-06-09T05:03:03.443Z,6796.00
2018-06-09T05:04:03.506Z,7012.00
2018-06-09T05:05:03.567Z,7256.00
2018-06-09T05:06:03.629Z,7424.00
2018-06-09T05:07:03.691Z,7428.00
2018-06-09T05:08:03.753Z,7196.00
2018-06-09T05:09:03.816Z,6888.00
2018-06-09T05:10:03.878Z,6676.00
2018-06-09T05:11:03.939Z,6640.00
2018-06-09T05:12:04.001Z,6672.00
2018-06-09T05:13:04.083Z,6636.00
2018-06-09T05:14:04.125Z,6600.00
2018-06-09T05:15:04.186Z,6536.00
2018-06-09T05:16:04.247Z,6528.00
2018-06-09T05:17:04.313Z,6680.00
2018-06-09T05:18:04.374Z,6804.00
2018-06-09T05:19:04.435Z,6672.00
2018-06-09T05:20:04.497Z,6580.00
2018-06-09T05:21:04.560Z,6780.00
2018-06-09T05:22:04.622Z,6500.00
2018-06-09T05:23:04.684Z,6148.00
2018-06-09T05:24:04.749Z,5548.00
2018-06-09T05:25:04.810Z,5256.00
2018-06-09T05:26:04.870Z,5712.00
2018-06-09T05:27:04.934Z,6128.00
2018-06-09T05:28:05.047Z,6232.00
2018-06-09T05:29:05.058Z,6292.00
2018-06-09T05:30:05.121Z,6164.00
2018-06-09T05:31:05.184Z,5936.00
2018-06-09T05:32:05.244Z,5764.00
2018-06-09T05:33:05.306Z,5656.00
2018-06-09T05:34:05.370Z,5608.00
2018-06-09T05:35:05.432Z,5816.00
2018-06-09T05:36:05.494Z,5792.00
2018-06-09T05:37:05.807Z,5476.00
2018-06-09T05:38:05.620Z,5252.00
2018-06-09T05:39:05.681Z,5336.00
2018-06-09T05:40:05.749Z,5464.00
2018-06-09T05:41:05.806Z,5496.00
2018-06-09T05:42:05.869Z,5480.00
2018-06-09T05:43:05.933Z,5488.00
2018-06-09T05:44:06.000Z,5652.00
2018-06-09T05:45:06.057Z,6052.00
2018-06-09T05:46:06.123Z,6540.00
2018-06-09T05:47:06.181Z,6600.00
2018-06-09T05:48:06.245Z,6288.00
2018-06-09T05:49:06.308Z,6096.00
2018-06-09T05:50:06.371Z,6024.00
2018-06-09T05:51:06.433Z,6056.00
2018-06-09T05:52:06.496Z,5964.00
2018-06-09T05:53:06.558Z,6120.00
2018-06-09T05:54:06.621Z,6436.00
2018-06-09T05:55:06.684Z,6808.00
2018-06-09T05:56:06.750Z,6824.00
2018-06-09T05:57:06.810Z,6544.00
2018-06-09T05:58:06.872Z,6052.00
2018-06-09T05:59:06.936Z,5584.00
2018-06-09T06:00:06.998Z,5268.00
2018-06-09T06:01:07.085Z,4932.00
2018-06-09T06:02:07.123Z,4772.00
2018-06-09T06:03:07.219Z,4740.00
2018-06-09T06:04:07.252Z,4692.00
2018-06-09T06:05:07.311Z,4664.00
2018-06-09T06:06:07.377Z,4676.00
2018-06-09T06:07:07.441Z,4732.00
2018-06-09T06:08:07.504Z,4812.00
2018-06-09T06:09:07.566Z,4968.00
2018-06-09T06:10:07.660Z,5216.00
2018-06-09T06:11:08.010Z,5468.00
2018-06-09T06:12:07.752Z,5540.00
2018-06-09T06:13:07.813Z,5380.00
2018-06-09T06:14:07.878Z,5028.00
2018-06-09T06:15:07.939Z,4772.00
2018-06-09T06:16:08.009Z,4588.00
2018-06-09T06:17:08.065Z,4448.00
2018-06-09T06:18:08.128Z,4380.00
2018-06-09T06:19:08.194Z,4376.00
2018-06-09T06:20:08.253Z,4464.00
2018-06-09T06:21:08.317Z,4676.00
2018-06-09T06:22:08.380Z,4952.00
2018-06-09T06:23:08.442Z,5148.00
2018-06-09T06:24:08.505Z,5364.00
2018-06-09T06:25:08.568Z,5628.00
2018-06-09T06:26:08.632Z,5912.00
2018-06-09T06:27:08.694Z,6216.00
2018-06-09T06:28:08.756Z,6448.00
2018-06-09T06:29:08.821Z,6604.00
2018-06-09T06:30:08.885Z,6776.00
2018-06-09T06:31:08.948Z,6940.00
2018-06-09T06:32:09.010Z,7336.00
2018-06-09T06:33:09.073Z,8164.00
2018-06-09T06:34:09.137Z,8832.00
2018-06-09T06:35:09.450Z,9408.00
2018-06-09T06:36:09.264Z,9888.00
2018-06-09T06:37:09.327Z,10480.00
2018-06-09T06:38:09.391Z,11244.00
2018-06-09T06:39:09.453Z,11688.00
2018-06-09T06:40:09.527Z,12004.00
2018-06-09T06:41:09.831Z,12244.00
2018-06-09T06:42:09.645Z,12332.00
2018-06-09T06:43:09.708Z,12184.00
2018-06-09T06:44:09.773Z,11692.00
2018-06-09T06:45:09.836Z,12364.00
2018-06-09T06:46:09.900Z,12476.00
2018-06-09T06:47:10.012Z,11980.00
2018-06-09T06:48:10.028Z,11700.00
2018-06-09T06:49:10.091Z,11992.00
2018-06-09T06:50:10.155Z,12528.00
2018-06-09T06:51:10.219Z,12804.00
2018-06-09T06:52:10.283Z,13868.00
2018-06-09T06:53:10.347Z,15024.00
2018-06-09T06:54:10.426Z,15904.00
2018-06-09T06:55:10.478Z,16008.00
2018-06-09T06:56:10.540Z,14952.00
2018-06-09T06:57:10.605Z,14516.00
2018-06-09T06:58:10.821Z,14168.00
2018-06-09T06:59:10.734Z,13496.00
2018-06-09T07:00:10.798Z,13552.00
2018-06-09T07:01:10.864Z,14112.00
2018-06-09T07:02:10.951Z,14512.00
2018-06-09T07:03:10.992Z,14164.00
2018-06-09T07:04:11.208Z,12920.00
2018-06-09T07:05:11.122Z,11452.00
2018-06-09T07:06:11.187Z,11268.00
2018-06-09T07:07:11.255Z,12312.00
2018-06-09T07:08:11.317Z,12436.00
2018-06-09T07:09:11.383Z,12408.00
2018-06-09T07:10:11.448Z,13268.00
2018-06-09T07:11:11.513Z,14556.00
2018-06-09T07:12:11.577Z,15420.00
2018-06-09T07:13:11.643Z,16316.00
2018-06-09T07:14:11.707Z,16652.00
2018-06-09T07:15:11.773Z,16128.00
2018-06-09T07:16:11.838Z,15332.00
2018-06-09T07:17:11.903Z,15148.00
2018-06-09T07:18:11.968Z,15680.00
2018-06-09T07:19:12.033Z,16056.00
2018-06-09T07:20:12.102Z,15384.00
2018-06-09T07:21:12.166Z,13948.00
2018-06-09T07:22:12.236Z,13664.00
2018-06-09T07:23:12.295Z,14112.00
2018-06-09T07:24:12.360Z,14072.00
2018-06-09T07:25:12.425Z,13708.00
2018-06-09T07:26:12.491Z,12932.00
2018-06-09T07:27:12.554Z,12524.00
2018-06-09T07:28:12.621Z,12588.00
2018-06-09T07:29:12.687Z,13016.00
2018-06-09T07:30:12.753Z,13652.00
2018-06-09T07:31:12.818Z,14464.00
2018-06-09T07:32:13.133Z,16432.00
2018-06-09T07:33:12.949Z,17664.00
2018-06-09T07:34:13.014Z,18080.00
2018-06-09T07:35:13.136Z,18016.00
2018-06-09T07:36:13.146Z,18240.00
2018-06-09T07:37:13.213Z,18976.00
2018-06-09T07:38:13.278Z,19456.00
2018-06-09T07:39:13.343Z,19936.00
2018-06-09T07:40:13.409Z,19872.00
2018-06-09T07:41:13.475Z,19040.00
2018-06-09T07:42:13.541Z,17824.00
2018-06-09T07:43:13.606Z,16928.00
2018-06-09T07:44:13.675Z,16408.00
2018-06-09T07:45:13.739Z,16352.00
2018-06-09T07:46:13.805Z,15952.00
2018-06-09T07:47:13.871Z,16016.00
2018-06-09T07:48:13.937Z,16792.00
2018-06-09T07:49:14.003Z,18496.00
2018-06-09T07:50:14.070Z,20096.00
2018-06-09T07:51:14.136Z,21376.00
2018-06-09T07:52:14.203Z,21920.00
2018-06-09T07:53:14.271Z,21472.00
2018-06-09T07:54:14.336Z,19936.00
2018-06-09T07:55:14.401Z,19872.00
2018-06-09T07:56:14.474Z,19040.00
2018-06-09T07:57:14.534Z,18112.00
2018-06-09T07:58:14.604Z,17528.00
2018-06-09T07:59:14.669Z,16740.00
2018-06-09T08:00:14.737Z,15772.00
2018-06-09T08:01:14.802Z,14532.00
2018-06-09T08:02:14.869Z,14000.00
2018-06-09T08:03:14.936Z,14180.00
2018-06-09T08:04:15.003Z,16028.00
2018-06-09T08:05:15.748Z,17056.00
2018-06-09T08:06:15.139Z,18624.00
2018-06-09T08:07:15.204Z,19264.00
2018-06-09T08:08:15.271Z,19584.00
2018-06-09T08:09:15.337Z,20064.00
2018-06-09T08:10:15.407Z,21120.00
2018-06-09T08:11:15.474Z,22240.00
2018-06-09T08:12:15.539Z,22688.00
2018-06-09T08:13:15.632Z,22720.00
2018-06-09T08:14:15.676Z,22816.00
2018-06-09T08:15:15.739Z,22848.00
2018-06-09T08:16:15.812Z,22720.00
2018-06-09T08:17:15.876Z,23712.00
2018-06-09T08:18:15.942Z,23680.00
2018-06-09T08:19:16.012Z,23200.00
2018-06-09T08:20:16.079Z,22656.00
2018-06-09T08:21:16.144Z,22848.00
2018-06-09T08:22:16.216Z,23456.00
2018-06-09T08:23:16.529Z,23424.00
2018-06-09T08:24:16.348Z,22656.00
2018-06-09T08:25:16.413Z,22560.00
2018-06-09T08:26:16.482Z,22976.00
2018-06-09T08:27:16.550Z,23200.00
2018-06-09T08:28:16.622Z,23136.00
2018-06-09T08:29:16.685Z,22560.00
2018-06-09T08:30:16.754Z,21984.00
2018-06-09T08:31:16.853Z,22208.00
2018-06-09T08:32:16.889Z,22432.00
2018-06-09T08:33:16.956Z,23104.00
2018-06-09T08:34:17.025Z,24352.00
2018-06-09T08:35:17.092Z,24608.00
2018-06-09T08:36:17.190Z,24800.00
2018-06-09T08:37:17.229Z,25856.00
2018-06-09T08:38:17.297Z,26304.00
2018-06-09T08:39:17.739Z,26176.00
2018-06-09T08:40:17.931Z,25088.00
2018-06-09T08:41:17.501Z,23200.00
2018-06-09T08:42:17.570Z,21088.00
2018-06-09T08:43:17.636Z,20064.00
2018-06-09T08:44:17.706Z,21376.00
2018-06-09T08:45:17.773Z,23968.00
2018-06-09T08:46:17.841Z,25600.00
2018-06-09T08:47:17.910Z,26912.00
2018-06-09T08:48:17.977Z,28128.00
2018-06-09T08:49:18.051Z,27904.00
2018-06-09T08:50:18.114Z,27136.00
2018-06-09T08:51:18.180Z,26400.00
2018-06-09T08:52:18.253Z,26432.00
2018-06-09T08:53:18.319Z,27648.00
2018-06-09T08:54:18.389Z,27872.00
2018-06-09T08:55:18.487Z,26752.00
2018-06-09T08:56:18.532Z,25632.00
2018-06-09T08:57:18.592Z,25248.00
2018-06-09T08:58:18.661Z,24832.00
2018-06-09T08:59:18.730Z,23712.00
2018-06-09T09:00:18.798Z,22592.00
2018-06-09T09:01:18.865Z,21664.00
2018-06-09T09:02:18.937Z,20000.00
2018-06-09T09:03:19.004Z,18848.00
2018-06-09T09:04:19.073Z,19104.00
2018-06-09T09:05:19.140Z,20576.00
2018-06-09T09:06:19.210Z,23232.00
2018-06-09T09:07:19.279Z,24192.00
2018-06-09T09:08:19.346Z,25408.00
2018-06-09T09:09:19.452Z,27264.00
2018-06-09T09:10:19.485Z,29280.00
2018-06-09T09:11:19.552Z,31264.00
2018-06-09T09:12:19.622Z,30176.00
2018-06-09T09:13:19.691Z,28000.00
2018-06-09T09:14:19.760Z,27872.00
2018-06-09T09:15:19.829Z,28832.00
2018-06-09T09:16:19.898Z,28832.00
2018-06-09T09:17:19.969Z,28672.00
2018-06-09T09:18:20.039Z,30528.00
2018-06-09T09:19:20.105Z,30912.00
2018-06-09T09:20:20.175Z,30048.00
2018-06-09T09:21:20.246Z,27264.00
2018-06-09T09:22:20.316Z,25312.00
2018-06-09T09:23:20.384Z,24288.00
2018-06-09T09:24:20.455Z,24352.00
2018-06-09T09:25:20.525Z,25792.00
2018-06-09T09:26:20.594Z,27424.00
2018-06-09T09:27:20.664Z,27968.00
2018-06-09T09:28:20.734Z,27680.00
2018-06-09T09:29:20.809Z,27072.00
2018-06-09T09:30:20.873Z,26528.00
2018-06-09T09:31:20.942Z,26880.00
2018-06-09T09:32:21.013Z,27520.00
2018-06-09T09:33:21.083Z,27776.00
2018-06-09T09:34:21.162Z,27744.00
2018-06-09T09:35:21.222Z,27552.00
2018-06-09T09:36:21.294Z,27840.00
2018-06-09T09:37:21.370Z,28608.00
2018-06-09T09:38:21.433Z,29824.00
2018-06-09T09:39:21.505Z,30144.00
2018-06-09T09:40:21.573Z,29088.00
2018-06-09T09:41:21.648Z,27456.00
2018-06-09T09:42:21.716Z,27328.00
2018-06-09T09:43:21.784Z,28096.00
2018-06-09T09:44:21.854Z,28064.00
2018-06-09T09:45:21.924Z,27232.00
2018-06-09T09:46:22.029Z,26080.00
2018-06-09T09:47:22.065Z,24896.00
2018-06-09T09:48:22.133Z,24160.00
2018-06-09T09:49:22.205Z,23360.00
2018-06-09T09:50:22.276Z,22432.00
2018-06-09T09:51:22.593Z,21536.00
2018-06-09T09:52:22.414Z,20864.00
2018-06-09T09:53:22.484Z,20896.00
2018-06-09T09:54:22.555Z,21664.00
2018-06-09T09:55:22.623Z,22912.00
2018-06-09T09:56:22.696Z,23968.00
2018-06-09T09:57:22.764Z,24256.00
2018-06-09T09:58:22.834Z,24384.00
2018-06-09T09:59:22.904Z,24864.00
2018-06-09T10:00:22.976Z,26240.00
2018-06-09T10:01:23.043Z,28512.00
2018-06-09T10:02:23.116Z,33088.00
2018-06-09T10:03:23.183Z,30720.00
2018-06-09T10:04:23.252Z,27488.00
2018-06-09T10:05:23.322Z,25536.00
2018-06-09T10:06:23.393Z,23040.00
2018-06-09T10:07:23.461Z,23168.00
2018-06-09T10:08:23.531Z,24704.00
2018-06-09T10:09:23.611Z,28544.00
2018-06-09T10:10:23.671Z,37792.00
2018-06-09T10:11:23.740Z,40128.00
2018-06-09T10:12:23.811Z,32256.00
2018-06-09T10:13:24.131Z,31008.00
2018-06-09T10:14:23.965Z,53376.00
2018-06-09T10:15:24.020Z,34880.00
2018-06-09T10:16:24.093Z,53216.00
2018-06-09T10:17:24.162Z,50720.00
2018-06-09T10:18:24.230Z,33696.00
2018-06-09T10:19:24.301Z,31136.00
2018-06-09T10:20:24.373Z,30176.00
2018-06-09T10:21:24.443Z,31136.00
2018-06-09T10:22:24.514Z,46848.00
2018-06-09T10:23:24.583Z,57632.00
2018-06-09T10:24:24.656Z,51392.00
2018-06-09T10:25:24.732Z,29696.00
2018-06-09T10:26:24.799Z,26912.00
2018-06-09T10:27:24.869Z,26208.00
2018-06-09T10:28:24.939Z,26880.00
2018-06-09T10:29:25.011Z,31008.00
2018-06-09T10:30:25.084Z,58368.00
2018-06-09T10:31:25.154Z,64224.00
2018-06-09T10:32:25.225Z,56896.00
2018-06-09T10:33:25.300Z,55776.00
2018-06-09T10:34:25.368Z,53376.00
2018-06-09T10:35:25.439Z,52640.00
2018-06-09T10:36:25.515Z,60096.00
2018-06-09T10:37:25.584Z,57120.00
2018-06-09T10:38:25.658Z,38752.00
2018-06-09T10:39:25.728Z,41280.00
2018-06-09T10:40:25.804Z,58112.00
2018-06-09T10:41:25.873Z,61824.00
2018-06-09T10:42:25.947Z,61024.00
2018-06-09T10:43:26.019Z,60512.00
2018-06-09T10:44:26.093Z,58624.00
2018-06-09T10:45:26.170Z,51776.00
2018-06-09T10:46:26.240Z,39872.00
2018-06-09T10:47:26.313Z,58880.00
2018-06-09T10:48:26.386Z,54752.00
2018-06-09T10:49:26.461Z,47520.00
2018-06-09T10:50:26.539Z,43520.00
2018-06-09T10:51:27.356Z,37696.00
2018-06-09T10:52:26.682Z,34560.00
2018-06-09T10:53:26.756Z,55104.00
2018-06-09T10:54:26.835Z,53536.00
2018-06-09T10:55:26.907Z,59104.00
2018-06-09T10:56:26.979Z,59136.00
2018-06-09T10:57:27.112Z,54560.00
2018-06-09T10:58:27.129Z,40224.00
2018-06-09T10:59:27.202Z,36224.00
2018-06-09T11:00:27.276Z,50432.00
2018-06-09T11:01:27.350Z,59040.00
2018-06-09T11:02:27.425Z,59968.00
2018-06-09T11:03:27.497Z,60576.00
2018-06-09T11:04:27.574Z,59328.00
2018-06-09T11:05:27.647Z,59296.00
2018-06-09T11:06:27.723Z,56960.00
2018-06-09T11:07:27.799Z,57312.00
2018-06-09T11:08:27.871Z,58464.00
2018-06-09T11:09:27.948Z,58400.00
2018-06-09T11:10:28.024Z,55936.00
2018-06-09T11:11:28.098Z,56416.00
2018-06-09T11:12:28.174Z,53760.00
2018-06-09T11:13:28.249Z,55392.00
2018-06-09T11:14:28.327Z,55712.00
2018-06-09T11:15:28.402Z,50496.00
2018-06-09T11:16:28.478Z,50016.00
2018-06-09T11:17:28.553Z,46080.00
2018-06-09T11:18:28.634Z,50240.00
2018-06-09T11:19:28.705Z,54720.00
2018-06-09T11:20:28.781Z,57056.00
2018-06-09T11:21:28.857Z,40256.00
2018-06-09T11:22:28.933Z,49952.00
2018-06-09T11:23:29.009Z,49440.00
2018-06-09T11:24:29.096Z,51296.00
2018-06-09T11:25:29.161Z,38880.00
2018-06-09T11:26:29.237Z,36544.00
2018-06-09T11:27:29.312Z,36480.00
2018-06-09T11:28:29.386Z,38368.00
2018-06-09T11:29:29.464Z,43488.00
2018-06-09T11:30:29.540Z,43808.00
2018-06-09T11:31:29.613Z,50112.00
2018-06-09T11:32:29.689Z,50944.00
2018-06-09T11:33:29.767Z,50432.00
2018-06-09T11:34:29.839Z,47168.00
2018-06-09T11:35:29.914Z,45760.00
2018-06-09T11:36:29.989Z,46272.00
2018-06-09T11:37:30.067Z,41792.00
2018-06-09T11:38:30.139Z,38784.00
2018-06-09T11:39:30.216Z,53792.00
2018-06-09T11:40:30.287Z,54784.00
2018-06-09T11:41:30.365Z,55776.00
2018-06-09T11:42:30.438Z,52992.00
2018-06-09T11:43:30.512Z,47360.00
2018-06-09T11:44:30.588Z,55104.00
2018-06-09T11:45:30.663Z,58208.00
2018-06-09T11:46:30.738Z,57344.00
2018-06-09T11:47:30.813Z,56960.00
2018-06-09T11:48:30.889Z,55296.00
2018-06-09T11:49:30.963Z,55488.00
2018-06-09T11:50:31.040Z,59360.00
2018-06-09T11:51:31.116Z,61344.00
2018-06-09T11:52:31.190Z,64448.00
2018-06-09T11:53:31.267Z,65600.00
2018-06-09T11:54:31.348Z,66688.00
2018-06-09T11:55:31.416Z,66368.00
2018-06-09T11:56:31.496Z,65280.00
2018-06-09T11:57:31.570Z,64512.00
2018-06-09T11:58:31.648Z,68224.00
2018-06-09T11:59:31.723Z,67648.00
2018-06-09T12:00:31.801Z,72992.00
2018-06-09T12:01:31.878Z,77376.00
2018-06-09T12:02:31.954Z,73120.00
2018-06-09T12:03:32.031Z,70240.00
2018-06-09T12:04:32.109Z,49632.00
2018-06-09T12:05:32.495Z,34720.00
2018-06-09T12:06:32.262Z,45312.00
2018-06-09T12:07:32.341Z,66400.00
2018-06-09T12:08:32.416Z,74624.00
2018-06-09T12:09:32.494Z,66048.00
2018-06-09T12:10:32.571Z,89536.00
2018-06-09T12:11:32.651Z,95872.00
2018-06-09T12:12:32.724Z,96448.00
2018-06-09T12:13:32.801Z,95616.00
2018-06-09T12:14:32.878Z,94720.00